Time;durP1;ratioP1;P1;durP2;ratioP2;P2;SDS_P1;SDS_P2;PMS_P1;PMS_P2;Temp;Humidity;BMP_temperature;BMP_pressure;BME280_temperature;BME280_humidity;BME280_pressure;Samples;Min_cycle;Max_cycle;Signal;HPM_P1;HPM_P2
2022/08/18 00:02:17;;;;;;;12.85;7.82;;;22.40;99.90;;;22.89;80.15;101262.84;4826634;29;20554;-69
2022/08/18 00:04:46;;;;;;;10.57;8.68;;;22.40;99.90;;;22.88;80.22;101246.72;4826793;29;20070;-69
2022/08/18 00:07:22;;;;;;;13.32;8.50;;;22.50;99.90;;;22.68;80.44;101209.03;4825268;29;20062;-69
2022/08/18 00:09:51;;;;;;;12.05;8.63;;;22.50;99.90;;;23.00;80.31;101262.28;4826437;29;20046;-69
2022/08/18 00:12:30;;;;;;;11.73;8.25;;;22.50;99.90;;;22.91;80.61;101258.25;4826441;29;20057;-68
2022/08/18 00:15:02;;;;;;;9.77;8.15;;;22.50;99.90;;;22.86;80.70;101267.50;4826457;29;20079;-69
2022/08/18 00:17:33;;;;;;;11.32;8.48;;;22.50;99.90;;;22.88;80.42;101265.63;4825376;29;20050;-69
2022/08/18 00:20:03;;;;;;;10.80;8.13;;;22.40;99.90;;;22.87;80.37;101258.44;4826390;29;20054;-69
2022/08/18 00:22:32;;;;;;;11.40;8.05;;;22.40;99.90;;;22.89;80.59;101252.03;4826627;29;20050;-69
2022/08/18 00:25:00;;;;;;;11.57;8.35;;;22.40;99.90;;;22.96;80.57;101239.97;4826420;29;20047;-68
2022/08/18 00:27:31;;;;;;;9.75;7.75;;;22.50;99.90;;;22.99;80.67;101237.16;4826695;29;20058;-69
2022/08/18 00:30:02;;;;;;;14.25;8.05;;;22.50;99.90;;;23.14;80.45;101239.06;4826421;29;20141;-69
2022/08/18 00:32:43;;;;;;;10.27;7.93;;;22.70;99.90;;;23.12;80.16;101240.09;4826451;29;20054;-69
2022/08/18 00:35:19;;;;;;;12.65;8.38;;;22.60;99.90;;;23.02;80.39;101244.19;4826029;29;20116;-69
2022/08/18 00:37:49;;;;;;;13.98;8.35;;;22.60;99.90;;;22.90;80.21;101242.97;4824923;29;20401;-69
2022/08/18 00:40:21;;;;;;;13.80;8.40;;;22.50;99.90;;;22.77;79.91;101230.16;4826232;29;20412;-68
2022/08/18 00:42:56;;;;;;;11.23;8.50;;;22.50;99.90;;;22.86;80.23;101262.97;4825897;29;20425;-68
2022/08/18 00:45:31;;;;;;;11.43;7.57;;;22.40;99.90;;;22.72;80.59;101253.81;4825953;29;20069;-68
2022/08/18 00:48:01;;;;;;;12.32;7.85;;;22.30;99.90;;;22.61;81.12;101248.06;4826138;29;20058;-68
2022/08/18 00:50:37;;;;;;;12.38;9.02;;;22.20;99.90;;;22.52;81.40;101237.66;4825968;29;20054;-69
2022/08/18 00:53:20;;;;;;;15.05;9.18;;;22.10;99.90;;;22.47;81.82;101253.19;4825766;29;20133;-69
2022/08/18 00:55:51;;;;;;;16.30;9.23;;;22.00;99.90;;;22.39;82.24;101253.56;4824720;29;20543;-69
2022/08/18 00:58:28;;;;;;;13.27;9.48;;;22.00;99.90;;;22.35;82.22;101265.44;4825781;29;20125;-69
2022/08/18 01:01:01;;;;;;;14.85;9.80;;;21.90;99.90;;;22.30;82.51;101256.66;4825398;29;20095;-69
2022/08/18 01:03:35;;;;;;;14.65;10.50;;;21.80;99.90;;;22.13;82.89;101248.47;4825714;29;20489;-68
2022/08/18 01:06:13;;;;;;;13.18;10.63;;;21.80;99.90;;;22.30;82.31;101260.25;4825835;29;20386;-69
2022/08/18 01:08:41;;;;;;;12.25;10.10;;;21.80;99.90;;;22.38;82.21;101254.50;4825553;29;20074;-68
2022/08/18 01:11:10;;;;;;;16.05;11.18;;;21.90;99.90;;;22.41;82.46;101260.59;4825459;29;20053;-68
2022/08/18 01:13:41;;;;;;;18.47;11.20;;;22.00;99.90;;;22.42;82.45;101265.06;4825747;29;20266;-68
2022/08/18 01:21:50;;;;;;;15.15;10.45;;;21.90;99.90;;;22.34;83.12;101251.06;4825410;29;20081;-69
2022/08/18 01:25:58;;;;;;;13.55;11.73;;;21.90;99.90;;;22.30;83.79;101240.50;4825296;29;20046;-68
2022/08/18 01:27:17;;;;;;;13.35;10.98;;;21.90;99.90;;;22.29;84.44;101239.63;4825263;29;20050;-69
2022/08/18 01:29:47;;;;;;;17.15;10.85;;;21.80;99.90;;;22.21;84.35;101231.03;4825211;29;20416;-69
2022/08/18 01:32:19;;;;;;;12.63;11.33;;;21.80;99.90;;;22.17;84.26;101242.00;4825485;29;20050;-69
2022/08/18 01:34:52;;;;;;;15.93;11.82;;;21.80;99.90;;;22.16;83.34;101222.25;4825133;29;20299;-69
2022/08/18 01:37:25;;;;;;;13.05;10.18;;;21.80;99.90;;;22.14;83.27;101247.56;4825019;29;20119;-68
2022/08/18 01:39:56;;;;;;;12.02;10.52;;;21.70;99.90;;;22.12;84.08;101247.63;4825128;29;20055;-69
2022/08/18 01:42:45;;;;;;;12.88;11.38;;;21.70;99.90;;;22.11;84.81;101250.38;4825160;29;20054;-68
2022/08/18 01:45:16;;;;;;;12.35;11.25;;;21.70;99.90;;;22.05;85.25;101246.16;4825316;29;20458;-68
2022/08/18 01:47:45;;;;;;;13.40;11.98;;;21.70;99.90;;;22.12;85.33;101244.06;4825298;29;20058;-68
2022/08/18 01:50:16;;;;;;;;;;;21.70;99.90;;;22.06;85.34;101250.59;4825293;29;20054;-69
2022/08/18 01:52:45;;;;;;;15.77;10.85;;;21.70;99.90;;;22.07;85.63;101260.44;4825488;29;19937;-68
2022/08/18 01:55:17;;;;;;;10.75;9.65;;;21.70;99.90;;;21.99;85.11;101256.34;4825145;29;20054;-68
2022/08/18 01:57:46;;;;;;;14.02;10.48;;;21.60;99.90;;;21.92;85.19;101268.31;4824820;29;20054;-69
2022/08/18 02:00:18;;;;;;;11.70;10.65;;;21.50;99.90;;;21.89;85.29;101274.72;4824804;29;20057;-69
2022/08/18 02:02:49;;;;;;;11.57;10.48;;;21.40;99.90;;;21.81;84.87;101273.31;4825080;29;20433;-69
2022/08/18 02:05:35;;;;;;;11.45;10.25;;;21.40;99.90;;;21.74;84.69;101269.97;4825262;29;20093;-69
2022/08/18 02:08:07;;;;;;;11.13;10.02;;;21.30;99.90;;;21.67;84.81;101255.03;4824685;29;20470;-69
2022/08/18 02:10:37;;;;;;;10.85;9.93;;;21.30;99.90;;;21.72;85.30;101271.84;4824584;29;20558;-68
2022/08/18 02:13:06;;;;;;;12.88;11.13;;;21.30;99.90;;;21.72;85.61;101263.78;4824029;29;20096;-69
2022/08/18 02:15:35;;;;;;;13.00;11.68;;;21.30;99.90;;;21.79;85.41;101270.66;4824808;29;20474;-68
2022/08/18 02:18:03;;;;;;;14.40;11.05;;;21.30;99.90;;;21.80;85.37;101271.53;4824568;29;20103;-68
2022/08/18 02:20:31;;;;;;;13.73;12.38;;;21.30;99.90;;;21.79;85.50;101273.34;4824538;29;20145;-68
2022/08/18 02:23:02;;;;;;;14.80;11.98;;;21.40;99.90;;;21.74;85.54;101269.97;4823556;29;20131;-68
2022/08/18 02:25:31;;;;;;;12.88;10.55;;;21.30;99.90;;;21.69;85.44;101258.53;4824717;29;20078;-68
2022/08/18 02:28:01;;;;;;;12.27;10.23;;;21.30;99.90;;;21.74;85.33;101267.28;4824489;29;20113;-69
2022/08/18 02:30:30;;;;;;;13.13;11.37;;;21.30;99.90;;;21.79;85.47;101264.41;4824375;29;20050;-68
2022/08/18 02:32:58;;;;;;;16.17;12.18;;;21.30;99.90;;;21.80;85.27;101255.34;4824595;29;20294;-68
2022/08/18 02:35:26;;;;;;;12.65;11.35;;;21.40;99.90;;;21.85;85.65;101258.78;4824148;29;20390;-69
2022/08/18 02:37:55;;;;;;;13.23;11.88;;;21.40;99.90;;;21.86;85.81;101261.38;4823130;29;20058;-68
2022/08/18 02:40:27;;;;;;;14.43;11.55;;;21.40;99.90;;;21.60;85.95;101237.41;4824819;29;20065;-68
2022/08/18 02:42:55;;;;;;;14.63;11.48;;;21.40;99.90;;;21.88;85.60;101277.47;4824207;29;20141;-69
2022/08/18 02:45:25;;;;;;;13.68;11.30;;;21.40;99.90;;;21.71;84.79;101271.94;4823233;29;20489;-69
2022/08/18 02:47:55;;;;;;;12.90;11.63;;;21.40;99.90;;;21.58;84.54;101276.09;4824418;29;20133;-68
2022/08/18 02:50:23;;;;;;;9.73;8.93;;;21.20;99.90;;;21.54;83.79;101270.00;4823200;29;20082;-69
2022/08/18 02:52:53;;;;;;;9.95;8.95;;;21.20;99.90;;;21.47;83.51;101274.75;4823969;29;20047;-69
2022/08/18 02:55:21;;;;;;;9.20;8.30;;;21.10;99.90;;;21.37;83.39;101272.50;4824124;29;20085;-69
2022/08/18 02:57:49;;;;;;;9.13;7.78;;;21.00;99.90;;;21.30;83.67;101271.00;4823891;29;20070;-69
2022/08/18 03:00:19;;;;;;;9.25;8.45;;;21.00;99.90;;;21.37;84.58;101278.75;4824046;29;20484;-68
2022/08/18 03:02:50;;;;;;;8.68;7.80;;;20.90;99.90;;;21.45;84.78;101289.19;4824229;29;20428;-68
2022/08/18 03:05:19;;;;;;;9.30;8.32;;;21.00;99.90;;;21.48;84.76;101287.28;4824007;29;20390;-68
2022/08/18 03:07:49;;;;;;;9.70;8.45;;;21.00;99.90;;;21.39;84.97;101293.03;4823926;29;20050;-68
2022/08/18 03:10:17;;;;;;;8.75;7.85;;;21.00;99.90;;;21.49;85.17;101288.13;4824183;29;20046;-68
2022/08/18 03:13:01;;;;;;;17.70;8.85;;;21.00;99.90;;;21.59;85.13;101292.19;4824155;29;20053;-68
2022/08/18 03:15:29;;;;;;;9.40;8.02;;;21.10;99.90;;;21.52;85.23;101283.50;4824038;29;20162;-68
2022/08/18 03:18:00;;;;;;;9.35;8.45;;;21.10;99.90;;;20.99;85.47;101195.16;4824106;29;20042;-68
2022/08/18 03:20:29;;;;;;;10.30;9.30;;;21.10;99.90;;;21.54;85.63;101294.22;4824129;29;20058;-68
2022/08/18 03:23:00;;;;;;;10.95;10.05;;;21.10;99.90;;;21.40;85.04;101280.47;4824064;29;20054;-69
2022/08/18 03:25:33;;;;;;;15.80;10.13;;;21.10;99.90;;;21.52;84.82;101288.88;4827247;29;20055;-68
2022/08/18 03:28:03;;;;;;;13.95;11.23;;;21.10;99.90;;;21.41;84.75;101263.34;4827113;29;20042;-69
2022/08/18 03:30:31;;;;;;;13.65;12.15;;;21.20;99.90;;;21.62;85.26;101293.88;4827102;29;20492;-68
2022/08/18 03:33:01;;;;;;;17.80;16.00;;;21.20;99.90;;;21.66;85.66;101285.59;4827381;29;20050;-69
2022/08/18 03:35:29;;;;;;;19.33;16.87;;;21.30;99.90;;;21.69;85.67;101289.97;4827541;29;20061;-68
2022/08/18 03:37:59;;;;;;;17.20;15.40;;;21.30;99.90;;;21.71;85.76;101288.09;4825581;29;20138;-69
2022/08/18 03:40:28;;;;;;;16.07;14.53;;;21.30;99.90;;;21.81;85.86;101290.38;4827250;29;20042;-68
2022/08/18 03:42:56;;;;;;;15.18;13.70;;;21.40;99.90;;;22.00;85.49;101294.00;4826894;29;20291;-68
2022/08/18 03:45:30;;;;;;;15.85;14.23;;;21.50;99.90;;;22.01;85.00;101293.03;4826948;29;20111;-68
2022/08/18 03:48:01;;;;;;;17.38;13.80;;;21.60;99.90;;;21.66;85.46;101280.19;4827125;29;20103;-68
2022/08/18 03:50:31;;;;;;;17.58;15.90;;;21.30;99.90;;;20.79;86.53;101182.56;4827082;29;20054;-69
2022/08/18 03:52:59;;;;;;;19.73;17.90;;;21.00;99.90;;;21.42;87.56;101284.84;4827031;29;20425;-68
2022/08/18 03:55:28;;;;;;;19.00;17.20;;;20.90;99.90;;;21.55;87.49;101279.81;4826964;29;20404;-68
2022/08/18 03:58:02;;;;;;;21.23;19.20;;;21.00;99.90;;;21.53;87.23;101278.97;4826678;29;20058;-69
2022/08/18 04:00:32;;;;;;;22.02;19.90;;;21.10;99.90;;;21.65;86.87;101291.03;4826862;29;20062;-68
2022/08/18 04:03:03;;;;;;;20.60;18.65;;;21.20;99.90;;;21.73;86.46;101291.59;4826693;29;20062;-68
2022/08/18 04:05:33;;;;;;;20.02;18.02;;;21.20;99.90;;;21.79;86.05;101292.22;4826608;29;20115;-68
2022/08/18 04:08:03;;;;;;;19.77;17.90;;;21.30;99.90;;;21.80;85.87;101293.97;4826487;29;20114;-67
2022/08/18 04:10:32;;;;;;;20.27;18.27;;;21.40;99.90;;;21.85;85.87;101296.50;4826477;29;20046;-68
2022/08/18 04:13:01;;;;;;;21.90;19.73;;;21.40;99.90;;;21.88;85.83;101289.13;4826459;29;20038;-66
2022/08/18 04:15:29;;;;;;;23.25;19.45;;;21.50;99.90;;;21.94;85.79;101306.84;4826451;29;20107;-67
2022/08/18 04:18:02;;;;;;;22.83;20.15;;;21.50;99.90;;;21.97;85.66;101294.09;4826642;29;20386;-67
2022/08/18 04:20:32;;;;;;;22.75;20.45;;;21.60;99.90;;;21.91;85.91;101285.44;4826670;29;20121;-67
2022/08/18 04:23:01;;;;;;;22.50;20.27;;;21.60;99.90;;;21.91;86.58;101293.53;4826510;29;20492;-66
2022/08/18 04:25:31;;;;;;;21.10;19.08;;;21.50;99.90;;;21.91;86.90;101286.28;4826222;29;20119;-66
2022/08/18 04:28:02;;;;;;;;;;;21.50;99.90;;;21.83;87.10;101266.94;4826642;29;20115;-67
2022/08/18 04:30:31;;;;;;;22.15;20.02;;;21.60;99.90;;;22.00;87.14;101288.59;4826406;29;19956;-66
2022/08/18 04:33:05;;;;;;;22.52;20.15;;;21.60;99.90;;;22.08;87.16;101288.25;4826356;29;20074;-67
2022/08/18 04:35:37;;;;;;;22.05;19.88;;;21.60;99.90;;;21.53;87.06;101176.69;4825577;29;20057;-67
2022/08/18 04:38:06;;;;;;;21.10;18.90;;;21.70;99.90;;;22.07;87.22;101276.59;4826264;29;20090;-66
2022/08/18 04:40:34;;;;;;;21.40;19.35;;;21.60;99.90;;;22.07;87.50;101281.09;4826280;29;20055;-67
2022/08/18 04:43:02;;;;;;;22.20;20.10;;;21.60;99.90;;;22.01;87.13;101262.53;4825939;29;20055;-67
2022/08/18 04:45:31;;;;;;;24.42;20.88;;;21.60;99.90;;;22.09;87.13;101271.13;4826020;29;20046;-67
2022/08/18 04:47:59;;;;;;;21.67;19.58;;;21.60;99.90;;;22.05;87.33;101269.50;4826380;29;20058;-67
2022/08/18 04:50:29;;;;;;;21.67;19.52;;;21.60;99.90;;;22.03;87.27;101264.19;4826373;29;20047;-67
2022/08/18 04:55:48;;;;;;;25.25;22.67;;;21.50;99.90;;;21.87;87.29;101271.25;4825756;29;20054;-67
2022/08/18 04:58:17;;;;;;;24.45;21.95;;;21.40;99.90;;;21.84;87.35;101262.41;4825702;29;20491;-67
2022/08/18 05:00:46;;;;;;;23.55;21.10;;;21.40;99.90;;;21.90;87.40;101263.00;4825712;29;20390;-67
2022/08/18 05:03:14;;;;;;;21.10;19.10;;;21.40;99.90;;;21.99;87.34;101272.50;4825613;29;20078;-68
2022/08/18 05:05:44;;;;;;;22.33;19.98;;;21.50;99.90;;;21.80;87.43;101272.44;4825974;29;20046;-67
2022/08/18 05:08:12;;;;;;;20.27;18.37;;;21.50;99.90;;;21.98;87.46;101271.63;4825827;29;20050;-66
2022/08/18 05:10:41;;;;;;;21.15;18.20;;;21.50;99.90;;;22.04;87.29;101271.34;4825427;29;20497;-67
2022/08/18 05:13:09;;;;;;;19.75;17.65;;;21.60;99.90;;;22.09;87.00;101276.50;4825598;29;20101;-66
2022/08/18 05:15:39;;;;;;;18.60;16.80;;;21.60;99.90;;;22.06;86.48;101282.94;4824418;29;20500;-67
2022/08/18 05:18:27;;;;;;;22.13;17.97;;;21.60;99.90;;;22.03;86.18;101280.38;4825531;29;20508;-66
2022/08/18 05:20:58;;;;;;;20.23;18.13;;;21.60;99.90;;;22.08;85.99;101294.53;4825401;29;20417;-66
2022/08/18 05:23:30;;;;;;;22.33;20.13;;;21.70;99.90;;;22.05;85.95;101294.66;4825672;29;20054;-67
2022/08/18 05:26:01;;;;;;;17.45;15.95;;;21.60;99.90;;;21.92;85.78;101296.16;4825585;29;20149;-67
2022/08/18 05:28:29;;;;;;;;;;;21.60;99.90;;;21.86;85.77;101304.50;4825654;29;20050;-66
2022/08/18 05:30:57;;;;;;;17.73;16.10;;;21.60;99.90;;;21.75;85.88;101301.38;4825170;29;19924;-66
2022/08/18 05:33:28;;;;;;;18.60;16.88;;;21.40;99.90;;;21.75;85.90;101298.69;4825223;29;20119;-67
2022/08/18 05:36:04;;;;;;;18.00;16.40;;;21.40;99.90;;;21.69;86.75;101281.91;4825172;29;20433;-66
2022/08/18 05:38:43;;;;;;;18.27;16.38;;;21.40;99.90;;;21.95;86.83;101301.38;4824946;29;20058;-67
2022/08/18 05:41:20;;;;;;;16.73;15.23;;;21.50;99.90;;;22.05;87.07;101291.94;4825383;29;20050;-66
2022/08/18 05:43:49;;;;;;;17.27;15.68;;;21.60;99.90;;;22.28;87.17;101296.28;4825276;29;20057;-66
2022/08/18 05:46:22;;;;;;;19.17;17.23;;;21.80;99.90;;;22.27;87.41;101298.13;4825526;29;20054;-67
2022/08/18 05:48:50;;;;;;;19.40;17.33;;;21.90;99.90;;;22.36;87.26;101286.91;4824433;29;20050;-67
2022/08/18 05:51:29;;;;;;;21.73;19.52;;;21.90;99.90;;;22.43;86.99;101291.06;4824761;29;20247;-67
2022/08/18 05:56:48;;;;;;;21.80;19.52;;;22.10;99.90;;;22.56;87.46;101290.50;4824838;29;20133;-66
2022/08/18 05:59:22;;;;;;;22.55;20.13;;;22.10;99.90;;;22.75;86.95;101286.91;4825164;29;20054;-66
2022/08/18 06:01:59;;;;;;;20.30;18.20;;;22.30;99.90;;;22.90;86.13;101296.94;4825123;29;20046;-67
2022/08/18 06:04:41;;;;;;;23.92;18.63;;;22.50;99.90;;;23.13;85.04;101299.41;4825003;29;20062;-68
2022/08/18 06:07:17;;;;;;;19.95;17.13;;;22.70;99.90;;;23.33;84.43;101294.84;4824209;29;20129;-67
2022/08/18 06:09:50;;;;;;;20.88;17.08;;;22.90;99.90;;;23.48;84.17;101294.97;4824680;29;20050;-69
2022/08/18 06:12:27;;;;;;;18.17;16.45;;;23.00;99.90;;;23.69;83.60;101293.84;4822571;29;20084;-69
2022/08/18 06:15:05;;;;;;;18.85;16.95;;;23.20;99.90;;;23.48;82.32;101234.69;4825001;29;20122;-69
2022/08/18 06:18:04;;;;;;;18.13;16.25;;;23.40;99.90;;;24.04;81.46;101311.00;4824595;29;20083;-69
2022/08/18 06:20:46;;;;;;;17.30;15.52;;;23.60;99.90;;;24.19;80.48;101310.19;4824632;29;20050;-70
2022/08/18 06:23:27;;;;;;;16.63;14.52;;;23.70;99.90;;;24.33;79.83;101295.91;4824708;29;20454;-69
2022/08/18 06:26:11;;;;;;;16.88;15.27;;;23.90;99.90;;;24.48;79.04;101300.47;4824753;29;20081;-70
2022/08/18 06:29:01;;;;;;;16.67;14.88;;;24.00;99.90;;;24.57;78.88;101305.38;4824747;29;20466;-70
2022/08/18 06:31:40;;;;;;;17.90;15.38;;;24.10;99.90;;;24.69;77.99;101310.09;4824202;29;20569;-69
2022/08/18 06:34:20;;;;;;;15.70;14.00;;;24.30;99.90;;;24.82;77.24;101306.66;4823997;29;20051;-69
2022/08/18 06:36:54;;;;;;;17.00;14.98;;;24.40;99.90;;;24.92;76.96;101309.72;4824297;29;20074;-70
2022/08/18 06:39:32;;;;;;;15.70;14.18;;;24.40;99.90;;;24.72;76.34;101272.06;4822975;29;20088;-69
2022/08/18 06:42:04;;;;;;;16.98;13.70;;;24.50;99.90;;;25.03;76.48;101307.28;4824375;29;20476;-69
2022/08/18 06:44:38;;;;;;;14.00;12.43;;;24.60;99.90;;;25.03;76.63;101299.16;4824306;29;20541;-65
2022/08/18 06:47:17;;;;;;;15.32;13.68;;;24.70;99.90;;;25.21;76.39;101303.50;4824795;29;20580;-65
2022/08/18 06:49:53;;;;;;;17.70;14.77;;;24.80;99.90;;;25.33;75.70;101316.34;4824231;29;20489;-65
2022/08/18 06:52:27;;;;;;;13.27;11.80;;;24.90;99.90;;;25.42;74.91;101317.66;4824130;29;20493;-65
2022/08/18 06:54:59;;;;;;;12.68;11.30;;;25.00;99.90;;;25.52;74.37;101318.88;4824191;29;20046;-64
2022/08/18 06:57:33;;;;;;;11.88;9.57;;;25.10;99.90;;;25.70;73.35;101325.94;4823157;29;20119;-66
2022/08/18 07:00:10;;;;;;;11.02;9.05;;;25.30;99.90;;;25.61;72.45;101330.03;4828902;29;20498;-64
2022/08/18 07:02:48;;;;;;;11.65;10.02;;;25.30;99.90;;;25.40;71.66;101319.59;4830420;29;20054;-64
2022/08/18 07:05:25;;;;;;;13.02;10.30;;;25.10;99.90;;;25.34;72.07;101334.34;4829900;29;20495;-64
2022/08/18 07:08:16;;;;;;;12.13;10.30;;;25.00;99.90;;;25.38;71.72;101333.19;4830220;29;20141;-64
2022/08/18 07:10:50;;;;;;;9.85;8.77;;;25.00;99.90;;;25.49;71.44;101332.63;4827115;29;20119;-65
2022/08/18 07:13:25;;;;;;;10.88;8.52;;;25.10;99.90;;;25.60;71.71;101333.72;4829446;29;20079;-64
2022/08/18 07:15:55;;;;;;;9.95;8.95;;;25.20;99.90;;;25.59;71.91;101307.56;4828841;29;20054;-64
2022/08/18 07:18:29;;;;;;;9.75;8.40;;;25.30;99.90;;;25.89;70.95;101343.72;4829643;29;20132;-66
2022/08/18 07:21:00;;;;;;;14.27;8.98;;;25.50;99.90;;;26.05;70.69;101343.66;4829850;29;20052;-70
2022/08/18 07:23:33;;;;;;;12.02;7.78;;;25.70;99.90;;;26.17;70.16;101350.22;4829759;29;20141;-71
2022/08/18 07:26:10;;;;;;;20.58;16.45;;;25.80;99.90;;;26.19;68.71;101349.13;4829481;29;20464;-70
2022/08/18 07:28:43;;;;;;;13.27;10.30;;;25.80;99.90;;;26.24;69.07;101341.59;4830134;29;20133;-64
2022/08/18 07:31:36;;;;;;;21.63;9.40;;;25.90;99.90;;;26.29;69.55;101344.00;4830195;29;20042;-68
2022/08/18 07:34:12;;;;;;;8.40;7.38;;;25.90;99.90;;;26.24;68.37;101348.84;4829818;29;20133;-64
2022/08/18 07:36:47;;;;;;;10.20;7.35;;;25.90;99.90;;;26.30;68.57;101356.63;4829639;29;20046;-65
2022/08/18 07:39:23;;;;;;;7.25;5.90;;;25.90;99.90;;;26.14;67.54;101353.97;4828144;29;20493;-65
2022/08/18 07:41:59;;;;;;;9.27;6.93;;;25.80;99.90;;;26.10;66.99;101359.66;4828642;29;20394;-66
2022/08/18 07:44:43;;;;;;;10.18;5.72;;;25.70;99.90;;;25.91;67.23;101357.16;4829702;29;20125;-66
2022/08/18 07:47:17;;;;;;;8.43;6.15;;;25.60;99.90;;;25.71;68.00;101354.75;4829470;29;20107;-65
2022/08/18 07:49:47;;;;;;;7.63;5.43;;;25.50;99.90;;;25.70;68.97;101358.47;4829813;29;20137;-66
2022/08/18 07:52:41;;;;;;;6.55;5.32;;;25.40;99.90;;;25.55;69.14;101354.78;4829809;29;20051;-68
2022/08/18 07:55:27;;;;;;;6.03;5.43;;;25.30;99.90;;;25.41;69.44;101352.03;4829462;29;20060;-68
2022/08/18 07:58:17;;;;;;;9.68;6.53;;;25.20;99.90;;;25.46;69.78;101363.47;4829093;29;20042;-68
2022/08/18 08:00:54;;;;;;;7.10;5.90;;;25.20;99.90;;;25.54;70.42;101369.31;4829706;29;20086;-68
2022/08/18 08:03:42;;;;;;;5.80;5.30;;;25.20;99.90;;;25.81;69.87;101366.81;4829414;29;20058;-68
2022/08/18 08:06:20;;;;;;;6.72;5.05;;;25.50;99.90;;;26.02;69.55;101370.06;4828107;29;20099;-68
2022/08/18 08:08:59;;;;;;;5.80;5.22;;;25.70;99.90;;;26.06;68.29;101371.66;4829459;29;20115;-68
2022/08/18 08:11:43;;;;;;;6.10;5.50;;;25.80;99.90;;;26.16;68.23;101379.16;4825105;29;20078;-68
2022/08/18 08:14:36;;;;;;;4.85;4.35;;;25.90;99.90;;;26.27;67.87;101373.06;4826398;29;20049;-68
2022/08/18 08:17:16;;;;;;;5.00;4.50;;;26.00;99.90;;;26.28;67.38;101364.84;4826725;29;20129;-68
2022/08/18 08:20:11;;;;;;;6.57;4.68;;;26.00;99.90;;;26.28;67.14;101373.00;4826730;29;20123;-68
2022/08/18 08:22:53;;;;;;;9.95;5.30;;;26.00;99.90;;;26.41;67.91;101373.09;4826571;29;20501;-68
2022/08/18 08:25:26;;;;;;;5.40;4.60;;;26.10;99.90;;;26.17;67.67;101291.38;4826325;29;20054;-68
2022/08/18 08:28:26;;;;;;;4.70;4.03;;;26.30;99.90;;;26.77;65.69;101362.69;4826520;29;20046;-68
2022/08/18 08:31:09;;;;;;;5.13;3.83;;;26.50;99.90;;;26.77;65.49;101366.25;4826560;29;20074;-68
2022/08/18 08:34:07;;;;;;;4.15;3.75;;;26.50;99.90;;;27.05;65.07;101369.94;4825828;29;20489;-68
2022/08/18 08:36:39;;;;;;;4.95;4.43;;;26.70;99.90;;;26.91;64.28;101304.75;4826722;29;20088;-68
2022/08/18 08:39:17;;;;;;;3.85;3.53;;;26.90;99.90;;;27.52;63.65;101365.88;4826481;29;20063;-68
2022/08/18 08:41:52;;;;;;;4.82;4.20;;;27.20;99.90;;;27.56;61.37;101363.81;4826418;29;20072;-67
2022/08/18 08:44:47;;;;;;;4.43;3.95;;;27.30;99.90;;;27.63;61.01;101365.16;4825985;29;20110;-67
2022/08/18 08:47:32;;;;;;;5.88;3.83;;;27.40;99.90;;;27.65;60.11;101369.53;4826035;29;20417;-67
2022/08/18 08:50:05;;;;;;;5.00;4.22;;;27.40;99.90;;;27.58;60.53;101362.72;4825941;29;20050;-67
2022/08/18 08:52:42;;;;;;;4.95;4.15;;;27.30;99.90;;;26.72;62.65;101365.69;4826094;29;20073;-67
2022/08/18 08:55:25;;;;;;;4.32;3.92;;;26.70;99.90;;;27.03;63.95;101363.72;4826085;29;20420;-67
2022/08/18 08:58:00;;;;;;;4.90;4.10;;;26.70;99.90;;;27.27;64.68;101360.28;4825828;29;20079;-67
2022/08/18 09:00:30;;;;;;;5.80;3.88;;;26.90;99.90;;;27.56;63.95;101369.25;4825714;29;20493;-67
2022/08/18 09:03:26;;;;;;;4.30;3.92;;;27.20;99.90;;;27.65;62.05;101366.81;4825952;29;20051;-67
2022/08/18 09:06:14;;;;;;;4.00;3.47;;;27.30;99.90;;;27.67;60.57;101367.56;4825742;29;20076;-67
2022/08/18 09:09:07;;;;;;;21.48;8.68;;;27.40;99.90;;;27.75;60.79;101368.88;4825694;29;20315;-67
2022/08/18 09:12:01;;;;;;;51.45;13.77;;;27.40;99.90;;;27.79;60.48;101367.69;4825560;29;20069;-67
2022/08/18 09:15:04;;;;;;;5.65;3.83;;;27.50;99.90;;;27.88;60.90;101367.06;4825696;29;20066;-67
2022/08/18 09:17:55;;;;;;;7.65;3.22;;;27.50;99.90;;;28.16;59.97;101372.41;4826075;29;20054;-67
2022/08/18 09:20:55;;;;;;;4.70;3.42;;;27.80;99.90;;;28.36;59.95;101369.16;4825729;29;20088;-67
2022/08/18 09:23:28;;;;;;;3.38;3.03;;;28.10;99.90;;;28.59;59.23;101362.13;4825470;29;20081;-67
2022/08/18 09:25:59;;;;;;;3.22;2.95;;;28.30;99.90;;;28.36;57.52;101355.53;4825353;29;20498;-67
2022/08/18 09:28:57;;;;;;;3.33;3.00;;;28.20;99.90;;;28.65;58.53;101367.97;4825349;29;20049;-67
2022/08/18 09:31:28;;;;;;;7.53;2.85;;;28.30;99.90;;;28.06;59.34;101365.84;4824936;29;20042;-67
2022/08/18 09:34:25;;;;;;;3.85;2.90;;;28.00;99.90;;;27.93;59.33;101364.94;4825125;29;20494;-67
2022/08/18 09:37:18;;;;;;;4.80;3.40;;;27.80;99.90;;;27.88;60.26;101372.50;4825603;29;20046;-67
2022/08/18 09:43:29;;;;;;;5.47;3.33;;;27.50;99.90;;;27.37;60.90;101361.44;4804652;29;20047;-67
2022/08/18 09:46:03;;;;;;;4.22;3.28;;;27.20;99.90;;;26.64;63.67;101365.28;4824776;29;20059;-67
2022/08/18 09:48:34;;;;;;;4.18;3.05;;;26.40;99.90;;;26.23;64.77;101372.38;4825286;29;20054;-67
2022/08/18 09:51:36;;;;;;;7.00;3.13;;;26.00;99.90;;;26.02;65.79;101370.06;4825214;29;20050;-67
2022/08/18 09:54:16;;;;;;;5.40;3.55;;;25.60;99.90;;;25.82;66.64;101358.59;4825067;29;20053;-67
2022/08/18 09:57:19;;;;;;;6.72;4.03;;;25.50;99.90;;;26.03;66.19;101360.97;4824899;29;20115;-67
2022/08/18 10:00:30;;;;;;;5.18;3.38;;;25.60;99.90;;;26.24;66.31;101360.59;4823624;29;20082;-67
2022/08/18 10:03:19;;;;;;;5.32;3.72;;;25.80;99.90;;;26.36;66.17;101357.13;4823612;29;20054;-67
2022/08/18 10:06:18;;;;;;;4.68;3.72;;;26.00;99.90;;;26.42;65.35;101353.16;4825091;29;20046;-67
2022/08/18 10:09:26;;;;;;;6.03;3.55;;;26.10;99.90;;;26.53;64.72;101345.19;4824663;29;20462;-67
2022/08/18 10:12:22;;;;;;;5.07;3.70;;;26.20;99.90;;;26.58;64.20;101356.63;4824917;29;20409;-67
2022/08/18 10:15:48;;;;;;;4.65;3.20;;;26.30;99.90;;;26.67;63.47;101351.50;4824868;29;20050;-67
2022/08/18 10:18:42;;;;;;;4.15;3.33;;;26.40;99.90;;;26.81;63.78;101352.50;4801774;29;20123;-67
2022/08/18 10:21:19;;;;;;;5.40;3.60;;;26.50;99.90;;;26.80;63.31;101343.47;4824695;29;20091;-67
2022/08/18 10:23:57;;;;;;;7.10;3.72;;;26.50;99.90;;;26.57;63.72;101344.91;4824414;29;20501;-67
2022/08/18 10:27:35;;;;;;;4.85;3.15;;;26.30;99.90;;;26.78;63.52;101356.28;4824404;29;20137;-67
2022/08/18 10:30:57;;;;;;;3.78;3.42;;;26.30;99.90;;;26.89;62.39;101359.19;4824484;29;20409;-67
2022/08/18 10:34:09;;;;;;;7.25;3.47;;;26.50;99.90;;;27.01;62.51;101347.53;4823664;29;20141;-67
2022/08/18 10:36:51;;;;;;;4.55;3.10;;;26.70;99.90;;;27.31;62.09;101352.81;4822938;29;20054;-67
2022/08/18 10:39:23;;;;;;;5.65;3.60;;;26.90;99.90;;;27.38;60.44;101344.19;4824639;29;20153;-67
2022/08/18 10:42:06;;;;;;;4.45;3.50;;;27.10;99.90;;;27.48;60.55;101345.31;4824412;29;20077;-67
2022/08/18 10:44:44;;;;;;;5.90;3.85;;;27.20;99.90;;;27.58;60.39;101348.28;4823002;29;20145;-67
2022/08/18 10:47:23;;;;;;;8.07;4.15;;;27.30;99.90;;;27.65;59.55;101349.59;4824059;29;20047;-67
2022/08/18 10:49:53;;;;;;;7.60;4.07;;;27.30;99.90;;;27.67;59.40;101347.66;4824461;29;20046;-67
2022/08/18 10:52:58;;;;;;;6.35;3.63;;;27.40;99.90;;;27.49;60.13;101354.31;4824511;29;20060;-67
2022/08/18 10:55:55;;;;;;;11.05;3.67;;;27.20;99.90;;;27.58;60.24;101356.44;4824378;29;20066;-69
2022/08/18 10:59:03;;;;;;;10.05;3.55;;;27.20;99.90;;;27.60;59.04;101359.94;4824286;29;20459;-67
2022/08/18 11:01:47;;;;;;;5.15;3.20;;;27.30;99.90;;;27.29;59.90;101349.31;4824006;29;20689;-67